Terminal Aerodrome Forecast
Issued by NWS Des Moines, IA

Home | Current Version | Previous Version | Text Only | Print | Product List | Glossary On
Versions: 1 2 3 4 5 6 7 8 9 10 11 12 13 14 15 16 17 18
000
FTUS43 KDMX 040534
TAFDSM
TAF
KDSM 040534Z 0406/0506 14009KT 3SM -RASN OVC015
     FM040900 16008G15KT 3SM -RASN OVC005
     FM041100 17007KT 1SM -SNRA OVC005
     FM041400 19008KT 5SM -SN OVC005
     FM041700 23008KT P6SM OVC007
     FM042000 26010KT P6SM SCT100
     FM050100 20006KT P6SM SCT100=

USA.gov is the U.S. government's official web portal to all federal, state and local government web resources and services.